createdAt,value
2022-08-11T00:01:30.907Z,42.80
2022-08-11T00:06:32.147Z,42.67
2022-08-11T00:11:34.944Z,42.48
2022-08-11T00:16:35.257Z,42.77
2022-08-11T00:22:05.330Z,42.16
2022-08-11T00:27:53.926Z,42.14
2022-08-11T00:39:10.466Z,41.97
2022-08-11T00:44:26.104Z,41.71
2022-08-11T00:49:34.789Z,41.49
2022-08-11T00:55:09.650Z,41.17
2022-08-11T01:00:14.494Z,41.05
2022-08-11T01:05:51.729Z,41.34
2022-08-11T01:11:08.217Z,41.74
2022-08-11T01:16:48.070Z,41.50
2022-08-11T01:22:35.410Z,41.75
2022-08-11T01:28:18.760Z,41.59
2022-08-11T01:33:49.506Z,41.30
2022-08-11T01:39:18.677Z,41.39
2022-08-11T01:44:45.694Z,41.46
2022-08-11T01:50:08.813Z,41.63
2022-08-11T01:55:24.698Z,42.03
2022-08-11T02:00:31.324Z,41.82
2022-08-11T02:06:27.977Z,41.88
2022-08-11T02:11:35.211Z,41.98
2022-08-11T02:17:01.139Z,42.32
2022-08-11T02:22:24.510Z,42.81
2022-08-11T02:27:33.407Z,42.55
2022-08-11T02:32:59.609Z,43.08
2022-08-11T02:38:12.380Z,42.94
2022-08-11T02:43:41.612Z,43.42
2022-08-11T02:49:25.351Z,43.45
2022-08-11T02:54:34.519Z,43.97
2022-08-11T02:59:50.313Z,44.28
2022-08-11T03:05:07.785Z,44.35
2022-08-11T03:10:10.460Z,44.43
2022-08-11T03:15:34.269Z,44.28
2022-08-11T03:20:39.183Z,45.11
2022-08-11T03:25:46.850Z,44.93
2022-08-11T03:30:54.733Z,45.09
2022-08-11T03:36:05.818Z,44.71
2022-08-11T03:42:02.591Z,44.20
2022-08-11T03:47:13.340Z,43.94
2022-08-11T03:52:23.403Z,44.32
2022-08-11T03:57:54.437Z,43.89
2022-08-11T04:03:40.341Z,43.44
2022-08-11T04:09:09.895Z,43.50
2022-08-11T04:14:48.408Z,43.01
2022-08-11T04:20:16.478Z,42.89
2022-08-11T04:25:58.007Z,42.34
2022-08-11T04:31:07.192Z,42.66
2022-08-11T04:36:42.007Z,41.99
2022-08-11T04:42:34.745Z,41.70
2022-08-11T04:48:27.234Z,41.12
2022-08-11T04:54:00.974Z,40.97
2022-08-11T04:59:51.570Z,40.91
2022-08-11T05:05:22.024Z,40.45
2022-08-11T05:10:26.503Z,40.58
2022-08-11T05:15:52.830Z,39.26
2022-08-11T05:21:11.493Z,39.71
2022-08-11T05:26:47.745Z,39.37
2022-08-11T05:32:30.702Z,39.12
2022-08-11T05:37:38.931Z,37.70
2022-08-11T05:43:02.361Z,34.70
2022-08-11T05:48:19.285Z,29.68
2022-08-11T05:53:45.752Z,28.79
2022-08-11T05:58:46.981Z,26.05
2022-08-11T06:04:10.015Z,24.40
2022-08-11T06:09:07.451Z,22.34
2022-08-11T06:14:05.889Z,20.59
2022-08-11T06:19:26.093Z,18.83
2022-08-11T06:24:28.607Z,17.20
2022-08-11T06:29:54.513Z,18.07
2022-08-11T06:35:25.279Z,17.66
2022-08-11T06:40:36.277Z,15.75
2022-08-11T06:45:47.269Z,16.50
2022-08-11T06:51:08.194Z,16.46
2022-08-11T06:57:18.625Z,15.35
2022-08-11T07:02:21.751Z,15.43
2022-08-11T07:08:35.176Z,15.11
2022-08-11T07:13:49.820Z,14.41
2022-08-11T07:19:06.407Z,14.45
2022-08-11T07:24:59.307Z,14.73
2022-08-11T07:30:04.284Z,14.21
2022-08-11T07:35:12.713Z,14.87
2022-08-11T07:40:11.899Z,15.97
2022-08-11T07:45:28.822Z,17.21
2022-08-11T07:50:44.834Z,17.06
2022-08-11T07:55:53.626Z,17.60
2022-08-11T08:01:21.977Z,16.95
2022-08-11T08:06:39.692Z,17.39
2022-08-11T08:12:02.925Z,18.92
2022-08-11T08:17:17.867Z,19.28
2022-08-11T08:22:38.470Z,20.29
2022-08-11T08:27:55.760Z,20.78
2022-08-11T08:32:55.236Z,20.81
2022-08-11T08:37:53.256Z,21.80
2022-08-11T08:43:07.905Z,21.43
2022-08-11T08:48:11.935Z,20.51
2022-08-11T08:53:09.344Z,20.27
2022-08-11T08:58:25.384Z,21.16
2022-08-11T09:03:41.801Z,21.55
2022-08-11T09:14:05.151Z,21.24
2022-08-11T09:19:05.015Z,21.60
2022-08-11T09:24:29.377Z,22.24
2022-08-11T10:35:26.450Z,26.82
2022-08-11T10:41:21.709Z,25.24
2022-08-11T10:46:40.950Z,23.88
2022-08-11T10:52:01.361Z,22.13
2022-08-11T10:57:27.836Z,22.30
2022-08-11T11:02:35.835Z,23.90
2022-08-11T11:07:40.245Z,24.78
2022-08-11T11:13:07.921Z,26.35
2022-08-11T11:24:58.747Z,25.96
2022-08-11T11:30:47.841Z,26.46
2022-08-11T11:36:26.001Z,25.51
2022-08-11T11:42:01.181Z,25.39
2022-08-11T11:47:39.242Z,25.75
2022-08-11T11:53:06.004Z,24.90
2022-08-11T11:58:31.854Z,25.17
2022-08-11T12:09:34.882Z,25.47
2022-08-11T12:14:36.386Z,25.47
2022-08-11T12:19:41.503Z,25.31
2022-08-11T12:26:10.253Z,24.94
2022-08-11T12:30:29.898Z,25.11
2022-08-11T12:35:32.911Z,25.83
2022-08-11T12:41:15.550Z,26.52
2022-08-11T12:46:20.235Z,26.61
2022-08-11T12:52:13.614Z,26.22
2022-08-11T12:57:36.716Z,27.10
2022-08-11T13:02:54.130Z,27.56
2022-08-11T13:08:06.787Z,26.69
2022-08-11T13:13:55.313Z,26.35
2022-08-11T13:18:29.970Z,26.29
2022-08-11T13:23:29.186Z,25.71
2022-08-11T13:28:34.482Z,25.20
2022-08-11T13:33:37.078Z,25.87
2022-08-11T13:38:44.495Z,26.38
2022-08-11T13:43:45.952Z,26.63
2022-08-11T13:48:51.372Z,25.71
2022-08-11T13:54:08.929Z,26.22
2022-08-11T13:59:08.020Z,26.50
2022-08-11T14:04:31.085Z,26.62
2022-08-11T14:09:32.410Z,27.31
2022-08-11T14:14:35.357Z,27.81
2022-08-11T14:20:38.501Z,27.69
2022-08-11T14:26:03.357Z,28.03
2022-08-11T14:32:03.232Z,26.82
2022-08-11T14:37:11.545Z,28.11
2022-08-11T14:42:28.721Z,29.13
2022-08-11T14:47:30.368Z,29.88
2022-08-11T14:52:31.879Z,28.54
2022-08-11T14:57:59.200Z,29.34
2022-08-11T15:03:17.005Z,28.77
2022-08-11T15:08:49.946Z,29.26
2022-08-11T15:14:16.480Z,28.89
2022-08-11T15:19:16.570Z,28.45
2022-08-11T15:24:24.127Z,28.01
2022-08-11T15:29:54.328Z,27.90
2022-08-11T15:35:14.250Z,28.97
2022-08-11T15:40:46.290Z,28.98
2022-08-11T15:45:51.997Z,28.17
2022-08-11T15:51:08.899Z,29.15
2022-08-11T15:56:55.940Z,27.71
2022-08-11T16:02:16.094Z,28.38
2022-08-11T16:07:39.115Z,29.80
2022-08-11T16:13:15.187Z,30.50
2022-08-11T16:18:15.346Z,30.56
2022-08-11T16:23:37.969Z,30.25
2022-08-11T16:29:33.196Z,29.57
2022-08-11T16:35:34.054Z,29.25
2022-08-11T16:40:45.602Z,29.69
2022-08-11T16:46:05.975Z,29.79
2022-08-11T16:51:35.370Z,30.16
2022-08-11T16:56:39.167Z,30.53
2022-08-11T17:01:37.514Z,30.15
2022-08-11T17:07:01.006Z,30.75
2022-08-11T17:17:39.814Z,31.34
2022-08-11T17:22:59.198Z,31.84
2022-08-11T17:27:57.124Z,31.99
2022-08-11T17:33:31.058Z,32.16
2022-08-11T17:38:46.777Z,31.97
2022-08-11T17:44:16.760Z,31.71
2022-08-11T17:49:31.283Z,31.84
2022-08-11T17:54:49.642Z,31.88
2022-08-11T17:59:54.831Z,32.13
2022-08-11T18:04:54.518Z,31.97
2022-08-11T18:11:03.252Z,32.84
2022-08-11T18:16:28.607Z,33.09
2022-08-11T18:21:46.464Z,33.33
2022-08-11T18:27:51.790Z,33.74
2022-08-11T18:39:42.586Z,34.59
2022-08-11T18:46:14.071Z,35.15
2022-08-11T18:51:36.855Z,35.31
2022-08-11T18:56:53.913Z,35.60
2022-08-11T19:02:11.870Z,36.07
2022-08-11T19:07:40.824Z,35.89
2022-08-11T19:19:59.011Z,36.03
2022-08-11T19:26:10.517Z,36.25
2022-08-11T19:38:28.774Z,36.53
2022-08-11T19:44:11.448Z,36.54
2022-08-11T19:49:37.400Z,36.71
2022-08-11T19:55:08.047Z,37.04
2022-08-11T20:06:36.493Z,37.02
2022-08-11T20:13:55.162Z,37.05
2022-08-11T20:18:34.207Z,36.08
2022-08-11T20:24:10.697Z,36.55
2022-08-11T20:35:30.055Z,37.68
2022-08-11T20:41:02.210Z,37.67
2022-08-11T20:46:28.184Z,38.09
2022-08-11T20:51:43.949Z,38.13
2022-08-11T20:57:04.032Z,37.78
2022-08-11T21:02:36.146Z,37.95
2022-08-11T21:07:56.770Z,38.96
2022-08-11T21:13:26.828Z,38.99
2022-08-11T21:18:47.454Z,39.42
2022-08-11T21:24:03.593Z,39.55
2022-08-11T21:29:25.072Z,40.38
2022-08-11T21:34:41.812Z,40.75
2022-08-11T21:40:00.818Z,40.96
2022-08-11T21:45:23.187Z,41.27
2022-08-11T21:50:38.266Z,41.29
2022-08-11T21:56:04.482Z,41.14
2022-08-11T22:01:21.055Z,41.23
2022-08-11T22:12:34.275Z,41.29
2022-08-11T22:18:07.158Z,41.37
2022-08-11T22:23:23.041Z,41.62
2022-08-11T22:28:38.273Z,41.40
2022-08-11T22:34:02.285Z,41.96
2022-08-11T22:39:18.513Z,41.87
2022-08-11T22:44:33.914Z,42.24
2022-08-11T22:49:57.509Z,42.05
2022-08-11T22:55:14.634Z,42.19
2022-08-11T23:00:41.918Z,42.33
2022-08-11T23:05:58.787Z,42.30
2022-08-11T23:11:14.946Z,42.09
2022-08-11T23:16:46.013Z,42.06
2022-08-11T23:22:17.795Z,42.26
2022-08-11T23:27:43.131Z,42.33
2022-08-11T23:33:03.165Z,42.59
2022-08-11T23:38:41.238Z,42.59
2022-08-11T23:43:57.095Z,42.68
2022-08-11T23:49:17.008Z,42.66
2022-08-11T23:54:37.387Z,43.03
2022-08-11T23:59:53.259Z,43.21
